createdAt,value
2023-05-01T00:00:53.912Z,15.02
2023-05-01T00:03:21.021Z,12.25
2023-05-01T00:05:48.367Z,13.95
2023-05-01T00:08:16.045Z,13.15
2023-05-01T00:10:42.931Z,14.20
2023-05-01T00:13:10.120Z,14.63
2023-05-01T00:15:36.870Z,12.93
2023-05-01T00:18:03.907Z,14.38
2023-05-01T00:20:31.138Z,13.00
2023-05-01T00:22:58.156Z,14.90
2023-05-01T00:25:24.973Z,15.38
2023-05-01T00:27:52.030Z,15.07
2023-05-01T00:30:18.746Z,16.77
2023-05-01T00:32:45.816Z,17.17
2023-05-01T00:35:13.378Z,14.38
2023-05-01T00:37:40.497Z,14.88
2023-05-01T00:40:08.117Z,17.20
2023-05-01T00:42:36.316Z,16.30
2023-05-01T00:45:04.088Z,14.95
2023-05-01T00:47:31.171Z,15.38
2023-05-01T00:49:58.203Z,16.60
2023-05-01T00:52:25.937Z,22.23
2023-05-01T00:54:52.676Z,18.05
2023-05-01T00:57:22.892Z,18.98
2023-05-01T00:59:49.622Z,16.73
2023-05-01T01:02:16.626Z,20.27
2023-05-01T01:04:44.867Z,19.88
2023-05-01T01:07:21.497Z,19.48
2023-05-01T01:10:03.337Z,19.45
2023-05-01T01:13:01.411Z,19.80
2023-05-01T01:15:35.428Z,23.05
2023-05-01T01:18:12.699Z,18.90
2023-05-01T01:21:06.993Z,20.17
2023-05-01T01:23:40.167Z,22.42
2023-05-01T01:26:25.094Z,23.17
2023-05-01T01:29:36.783Z,21.73
2023-05-01T01:32:10.953Z,21.08
2023-05-01T01:35:01.038Z,21.65
2023-05-01T01:37:37.239Z,18.67
2023-05-01T01:40:09.928Z,21.90
2023-05-01T01:42:38.688Z,20.85
2023-05-01T01:45:10.879Z,18.20
2023-05-01T01:47:37.708Z,21.67
2023-05-01T01:50:05.511Z,20.33
2023-05-01T01:52:33.862Z,24.13
2023-05-01T01:55:05.282Z,22.85
2023-05-01T01:57:32.100Z,22.35
2023-05-01T01:59:59.154Z,18.27
2023-05-01T02:02:27.238Z,22.60
2023-05-01T02:04:56.745Z,20.13
2023-05-01T02:07:23.505Z,22.70
2023-05-01T02:09:50.870Z,21.80
2023-05-01T02:12:18.321Z,20.77
2023-05-01T02:14:45.389Z,23.65
2023-05-01T02:17:12.085Z,25.90
2023-05-01T02:19:40.534Z,21.50
2023-05-01T02:22:07.688Z,22.42
2023-05-01T02:24:34.872Z,22.10
2023-05-01T02:27:06.504Z,22.23
2023-05-01T02:29:34.202Z,21.35
2023-05-01T02:32:01.332Z,20.35
2023-05-01T02:34:28.375Z,22.75
2023-05-01T02:36:55.119Z,23.02
2023-05-01T02:39:22.414Z,25.13
2023-05-01T02:41:49.296Z,18.48
2023-05-01T02:44:16.298Z,21.13
2023-05-01T02:46:44.904Z,22.27
2023-05-01T02:49:11.916Z,24.50
2023-05-01T02:51:38.627Z,24.90
2023-05-01T02:54:05.661Z,25.30
2023-05-01T02:56:32.661Z,23.15
2023-05-01T02:58:59.718Z,24.73
2023-05-01T03:01:27.938Z,20.92
2023-05-01T03:03:55.088Z,21.25
2023-05-01T03:06:21.961Z,21.65
2023-05-01T03:08:49.006Z,20.42
2023-05-01T03:11:15.801Z,23.40
2023-05-01T03:13:43.673Z,20.13
2023-05-01T03:16:10.469Z,24.27
2023-05-01T03:18:37.535Z,22.33
2023-05-01T03:21:04.374Z,19.52
2023-05-01T03:23:31.525Z,21.30
2023-05-01T03:25:58.973Z,23.77
2023-05-01T03:28:26.020Z,21.67
2023-05-01T03:30:53.354Z,21.33
2023-05-01T03:33:20.405Z,22.23
2023-05-01T03:35:48.004Z,22.70
2023-05-01T03:38:15.270Z,22.05
2023-05-01T03:40:42.063Z,20.95
2023-05-01T03:43:09.065Z,25.48
2023-05-01T03:45:35.759Z,22.70
2023-05-01T03:48:02.861Z,25.52
2023-05-01T03:50:29.581Z,24.08
2023-05-01T03:52:56.610Z,23.60
2023-05-01T03:55:23.347Z,20.25
2023-05-01T03:57:50.798Z,22.15
2023-05-01T04:00:17.566Z,23.63
2023-05-01T04:02:44.663Z,20.42
2023-05-01T04:05:11.486Z,19.75
2023-05-01T04:07:38.543Z,23.02
2023-05-01T04:10:07.233Z,22.73
2023-05-01T04:12:34.307Z,18.80
2023-05-01T04:15:01.150Z,23.70
2023-05-01T04:17:28.176Z,26.55
2023-05-01T04:19:55.454Z,21.40
2023-05-01T04:22:23.414Z,21.65
2023-05-01T04:24:50.306Z,23.27
2023-05-01T04:27:17.876Z,20.58
2023-05-01T04:29:44.561Z,23.40
2023-05-01T04:32:11.971Z,22.23
2023-05-01T04:34:38.889Z,22.40
2023-05-01T04:37:07.845Z,22.92
2023-05-01T04:39:36.315Z,21.33
2023-05-01T04:42:03.991Z,20.77
2023-05-01T04:44:31.070Z,23.88
2023-05-01T04:46:58.232Z,21.30
2023-05-01T04:49:24.944Z,20.30
2023-05-01T04:51:52.026Z,22.27
2023-05-01T04:54:18.769Z,23.45
2023-05-01T04:56:45.804Z,22.30
2023-05-01T04:59:12.500Z,26.90
2023-05-01T05:01:39.598Z,21.20
2023-05-01T05:04:06.569Z,22.70
2023-05-01T05:06:33.790Z,20.38
2023-05-01T05:09:00.546Z,22.83
2023-05-01T05:11:27.783Z,22.67
2023-05-01T05:13:54.510Z,24.08
2023-05-01T05:16:21.626Z,20.23
2023-05-01T05:18:48.392Z,22.98
2023-05-01T05:21:15.391Z,19.48
2023-05-01T05:23:42.151Z,21.25
2023-05-01T05:26:09.176Z,20.52
2023-05-01T05:28:35.885Z,19.55
2023-05-01T05:31:02.911Z,20.65
2023-05-01T05:33:29.969Z,20.40
2023-05-01T05:35:58.633Z,20.70
2023-05-01T05:38:25.360Z,16.52
2023-05-01T05:40:54.214Z,19.05
2023-05-01T05:43:21.133Z,18.90
2023-05-01T05:45:48.162Z,20.85
2023-05-01T05:48:15.034Z,20.52
2023-05-01T05:50:42.078Z,17.80
2023-05-01T05:53:09.982Z,19.73
2023-05-01T05:55:36.986Z,17.58
2023-05-01T05:58:03.690Z,16.63
2023-05-01T06:00:30.918Z,18.63
2023-05-01T06:02:58.077Z,15.95
2023-05-01T06:05:25.264Z,19.33
2023-05-01T06:07:52.070Z,15.20
2023-05-01T06:10:19.388Z,15.15
2023-05-01T06:12:53.729Z,12.88
2023-05-01T06:15:29.603Z,17.50
2023-05-01T06:17:56.788Z,15.25
2023-05-01T06:20:23.820Z,14.50
2023-05-01T06:22:50.671Z,15.10
2023-05-01T06:25:17.767Z,12.70
2023-05-01T06:27:44.469Z,12.93
2023-05-01T06:30:11.733Z,13.13
2023-05-01T06:32:38.484Z,14.38
2023-05-01T06:35:06.315Z,12.88
2023-05-01T06:37:33.053Z,12.00
2023-05-01T06:40:00.361Z,12.18
2023-05-01T06:42:27.077Z,11.15
2023-05-01T06:44:54.098Z,13.05
2023-05-01T06:47:21.498Z,11.23
2023-05-01T06:49:48.776Z,11.07
2023-05-01T06:52:15.463Z,10.65
2023-05-01T06:54:42.528Z,12.63
2023-05-01T06:57:09.250Z,11.07
2023-05-01T06:59:36.440Z,10.02
2023-05-01T07:02:03.176Z,7.88
2023-05-01T07:04:31.464Z,9.50
2023-05-01T07:06:58.204Z,9.40
2023-05-01T07:09:25.463Z,9.02
2023-05-01T07:11:52.227Z,9.38
2023-05-01T07:14:19.198Z,7.20
2023-05-01T07:16:46.728Z,6.38
2023-05-01T07:19:14.019Z,8.68
2023-05-01T07:21:41.365Z,7.57
2023-05-01T07:24:08.424Z,8.63
2023-05-01T07:26:35.262Z,6.35
2023-05-01T07:29:02.311Z,8.23
2023-05-01T07:31:29.006Z,6.50
2023-05-01T07:33:56.749Z,6.15
2023-05-01T07:36:24.056Z,6.00
2023-05-01T07:38:51.042Z,5.03
2023-05-01T07:41:17.847Z,5.45
2023-05-01T07:43:44.833Z,6.53
2023-05-01T07:46:11.666Z,6.97
2023-05-01T07:48:39.104Z,6.68
2023-05-01T07:51:05.992Z,4.55
2023-05-01T07:53:33.230Z,8.40
2023-05-01T07:56:09.772Z,5.78
2023-05-01T07:58:37.212Z,4.72
2023-05-01T08:01:04.053Z,4.68
2023-05-01T08:03:31.442Z,5.05
2023-05-01T08:05:58.494Z,4.70
2023-05-01T08:08:25.544Z,4.22
2023-05-01T08:10:52.661Z,5.57
2023-05-01T08:13:19.650Z,3.67
2023-05-01T08:15:47.213Z,6.03
2023-05-01T08:18:20.230Z,4.85
2023-05-01T08:20:50.712Z,6.05
2023-05-01T08:23:17.814Z,4.50
2023-05-01T08:25:46.946Z,4.80
2023-05-01T08:28:14.753Z,4.80
2023-05-01T08:30:41.532Z,17.90
2023-05-01T08:33:08.429Z,5.75
2023-05-01T08:35:35.578Z,6.85
2023-05-01T08:38:02.292Z,5.30
2023-05-01T08:40:31.977Z,7.60
2023-05-01T08:43:00.689Z,5.28
2023-05-01T08:45:27.844Z,6.30
2023-05-01T08:47:55.127Z,5.40
2023-05-01T08:50:22.807Z,5.45
2023-05-01T08:52:50.941Z,3.63
2023-05-01T08:55:17.976Z,6.55
2023-05-01T08:57:48.224Z,5.85
2023-05-01T09:00:19.164Z,4.97
2023-05-01T09:02:47.167Z,5.03
2023-05-01T09:05:18.373Z,6.20
2023-05-01T09:07:48.014Z,4.10
2023-05-01T09:10:19.065Z,4.32
2023-05-01T09:12:47.752Z,4.22
2023-05-01T09:15:15.025Z,3.95
2023-05-01T09:17:42.174Z,4.28
2023-05-01T09:20:09.975Z,2.22
2023-05-01T09:22:36.915Z,5.75
2023-05-01T09:25:04.408Z,4.82
2023-05-01T09:27:35.312Z,2.33
2023-05-01T09:30:02.572Z,4.35
2023-05-01T09:32:29.423Z,5.28
2023-05-01T09:35:09.396Z,5.35
2023-05-01T09:37:36.643Z,3.90
2023-05-01T09:40:14.309Z,3.70
2023-05-01T09:42:51.502Z,3.97
2023-05-01T09:45:19.291Z,5.60
2023-05-01T09:47:46.332Z,3.72
2023-05-01T09:50:35.110Z,2.75
2023-05-01T09:53:02.769Z,3.95
2023-05-01T09:55:30.114Z,4.20
2023-05-01T09:57:58.768Z,3.22
2023-05-01T10:00:27.315Z,2.72
2023-05-01T10:02:54.161Z,3.15
2023-05-01T10:05:21.447Z,5.13
2023-05-01T10:08:02.480Z,1.98
2023-05-01T10:10:29.740Z,6.40
2023-05-01T10:12:56.612Z,2.95
2023-05-01T10:15:26.965Z,3.42
2023-05-01T10:17:54.313Z,3.78
2023-05-01T10:20:21.861Z,5.68
2023-05-01T10:22:49.197Z,2.42
2023-05-01T10:25:16.803Z,3.25
2023-05-01T10:27:43.617Z,2.33
2023-05-01T10:30:11.293Z,4.38
2023-05-01T10:32:38.274Z,5.72
2023-05-01T10:35:12.668Z,2.80
2023-05-01T10:37:48.717Z,2.65
2023-05-01T10:40:41.039Z,3.30
2023-05-01T10:43:18.045Z,2.92
2023-05-01T10:45:45.706Z,4.68
2023-05-01T10:48:12.898Z,5.68
2023-05-01T10:51:20.462Z,4.85
2023-05-01T10:54:13.094Z,3.90
2023-05-01T10:56:41.573Z,3.13
2023-05-01T10:59:09.129Z,2.65
2023-05-01T11:01:45.110Z,2.88
2023-05-01T11:04:24.805Z,4.03
2023-05-01T11:07:11.186Z,2.95
2023-05-01T11:09:54.280Z,3.40
2023-05-01T11:12:46.403Z,4.05
2023-05-01T11:15:25.042Z,3.58
2023-05-01T11:17:52.479Z,5.30
2023-05-01T11:20:25.156Z,5.22
2023-05-01T11:22:53.154Z,3.60
2023-05-01T11:25:33.225Z,4.55
2023-05-01T11:28:01.842Z,3.13
2023-05-01T11:30:41.245Z,3.25
2023-05-01T11:33:10.645Z,3.60
2023-05-01T11:35:39.099Z,4.15
2023-05-01T11:38:06.203Z,3.58
2023-05-01T11:40:34.425Z,3.70
2023-05-01T11:43:05.296Z,3.08
2023-05-01T11:45:32.202Z,3.15
2023-05-01T11:48:01.322Z,3.08
2023-05-01T11:50:37.568Z,2.50
2023-05-01T11:53:08.778Z,3.67
2023-05-01T11:55:35.783Z,2.28
2023-05-01T11:58:04.965Z,2.85
2023-05-01T12:00:33.865Z,1.92
2023-05-01T12:03:14.578Z,3.83
2023-05-01T12:05:45.374Z,1.73
2023-05-01T12:08:19.365Z,2.45
2023-05-01T12:10:56.231Z,2.28
2023-05-01T12:13:23.704Z,4.10
2023-05-01T12:15:54.498Z,3.45
2023-05-01T12:18:21.984Z,4.82
2023-05-01T12:20:53.020Z,5.53
2023-05-01T12:23:31.684Z,5.90
2023-05-01T12:25:58.446Z,6.80
2023-05-01T12:28:27.421Z,8.45
2023-05-01T12:30:57.740Z,7.57
2023-05-01T12:33:24.732Z,7.65
2023-05-01T12:35:51.680Z,6.28
2023-05-01T12:38:22.573Z,6.68
2023-05-01T12:40:53.801Z,6.55
2023-05-01T12:43:21.775Z,5.43
2023-05-01T12:45:53.399Z,5.05
2023-05-01T12:48:20.775Z,4.80
2023-05-01T12:50:54.312Z,4.93
2023-05-01T12:53:23.283Z,6.28
2023-05-01T12:55:51.839Z,5.60
2023-05-01T12:58:19.056Z,6.38
2023-05-01T13:00:46.718Z,4.75
2023-05-01T13:03:16.982Z,9.18
2023-05-01T13:06:00.331Z,4.88
2023-05-01T13:08:31.129Z,3.90
2023-05-01T13:11:00.392Z,4.90
2023-05-01T13:13:31.744Z,4.32
2023-05-01T13:16:12.364Z,3.60
2023-05-01T13:18:49.954Z,4.18
2023-05-01T13:21:21.821Z,3.55
2023-05-01T13:23:56.269Z,4.47
2023-05-01T13:26:31.480Z,3.30
2023-05-01T13:29:00.047Z,3.35
2023-05-01T13:31:26.923Z,5.05
2023-05-01T13:33:54.673Z,3.72
2023-05-01T13:36:25.793Z,4.05
2023-05-01T13:38:56.224Z,3.22
2023-05-01T13:41:25.799Z,2.88
2023-05-01T13:43:54.092Z,3.90
2023-05-01T13:46:22.847Z,3.80
2023-05-01T13:48:50.122Z,4.03
2023-05-01T13:51:26.451Z,3.15
2023-05-01T13:53:54.248Z,2.75
2023-05-01T13:56:21.926Z,3.05
2023-05-01T13:58:50.376Z,3.58
2023-05-01T14:01:19.023Z,3.70
2023-05-01T14:03:46.371Z,3.67
2023-05-01T14:06:14.065Z,3.03
2023-05-01T14:08:41.189Z,3.05
2023-05-01T14:11:08.287Z,3.10
2023-05-01T14:13:45.546Z,3.30
2023-05-01T14:16:22.277Z,4.50
2023-05-01T14:18:49.372Z,4.40
2023-05-01T14:21:17.230Z,3.53
2023-05-01T14:23:44.335Z,2.50
2023-05-01T14:26:11.691Z,2.85
2023-05-01T14:28:41.585Z,3.90
2023-05-01T14:31:08.776Z,3.47
2023-05-01T14:33:41.664Z,3.15
2023-05-01T14:36:08.369Z,3.22
2023-05-01T14:38:39.356Z,3.80
2023-05-01T14:41:06.440Z,3.85
2023-05-01T14:43:33.828Z,2.88
2023-05-01T14:46:00.733Z,3.08
2023-05-01T14:48:35.199Z,4.05
2023-05-01T14:51:07.320Z,3.43
2023-05-01T14:53:34.322Z,4.60
2023-05-01T14:56:01.074Z,2.83
2023-05-01T14:58:28.105Z,3.95
2023-05-01T15:00:55.257Z,3.30
2023-05-01T15:03:22.427Z,2.88
2023-05-01T15:05:49.247Z,3.22
2023-05-01T15:08:16.726Z,3.13
2023-05-01T15:10:44.993Z,3.40
2023-05-01T15:13:12.276Z,3.95
2023-05-01T15:15:38.986Z,2.95
2023-05-01T15:18:06.485Z,2.65
2023-05-01T15:20:33.175Z,3.60
2023-05-01T15:23:00.229Z,3.53
2023-05-01T15:25:27.029Z,3.30
2023-05-01T15:27:54.622Z,2.85
2023-05-01T15:30:21.550Z,2.85
2023-05-01T15:32:48.698Z,3.45
2023-05-01T15:35:16.595Z,3.15
2023-05-01T15:37:43.662Z,3.78
2023-05-01T15:40:10.550Z,4.30
2023-05-01T15:42:37.632Z,3.63
2023-05-01T15:45:04.802Z,3.65
2023-05-01T15:47:31.958Z,3.45
2023-05-01T15:49:58.888Z,6.28
2023-05-01T15:52:27.153Z,4.05
2023-05-01T15:54:54.977Z,4.13
2023-05-01T15:57:22.032Z,3.17
2023-05-01T15:59:53.879Z,3.90
2023-05-01T16:02:21.711Z,4.00
2023-05-01T16:04:48.838Z,4.55
2023-05-01T16:07:16.002Z,4.80
2023-05-01T16:09:42.978Z,4.75
2023-05-01T16:12:10.107Z,3.88
2023-05-01T16:14:39.369Z,6.20
2023-05-01T16:17:06.670Z,5.32
2023-05-01T16:19:33.655Z,4.22
2023-05-01T16:22:03.281Z,4.05
2023-05-01T16:24:36.777Z,6.35
2023-05-01T16:27:03.983Z,4.07
2023-05-01T16:29:34.448Z,3.97
2023-05-01T16:32:03.477Z,4.72
2023-05-01T16:34:30.237Z,5.03
2023-05-01T16:36:57.364Z,5.00
2023-05-01T16:39:24.326Z,3.92
2023-05-01T16:41:52.695Z,4.43
2023-05-01T16:44:20.533Z,5.85
2023-05-01T16:46:58.580Z,6.32
2023-05-01T16:49:27.614Z,3.72
2023-05-01T16:51:58.718Z,3.72
2023-05-01T16:54:31.993Z,5.07
2023-05-01T16:56:59.418Z,4.95
2023-05-01T16:59:28.064Z,4.03
2023-05-01T17:01:55.368Z,5.55
2023-05-01T17:04:22.346Z,4.68
2023-05-01T17:06:49.618Z,3.90
2023-05-01T17:09:16.537Z,4.38
2023-05-01T17:11:43.587Z,5.28
2023-05-01T17:14:10.395Z,5.53
2023-05-01T17:16:37.435Z,5.50
2023-05-01T17:19:08.800Z,4.82
2023-05-01T17:21:36.138Z,5.03
2023-05-01T17:24:03.203Z,7.18
2023-05-01T17:26:30.258Z,5.55
2023-05-01T17:28:57.488Z,5.07
2023-05-01T17:31:24.654Z,4.10
2023-05-01T17:33:51.449Z,3.83
2023-05-01T17:36:18.418Z,5.28
2023-05-01T17:38:45.292Z,5.97
2023-05-01T17:41:12.358Z,7.10
2023-05-01T17:43:39.201Z,6.72
2023-05-01T17:46:06.549Z,4.38
2023-05-01T17:48:33.332Z,6.57
2023-05-01T17:51:00.429Z,6.68
2023-05-01T17:53:27.329Z,5.05
2023-05-01T17:55:54.385Z,8.65
2023-05-01T17:58:21.346Z,6.35
2023-05-01T18:00:48.577Z,7.38
2023-05-01T18:03:15.536Z,5.80
2023-05-01T18:05:42.937Z,5.82
2023-05-01T18:08:09.691Z,8.75
2023-05-01T18:10:36.770Z,10.60
2023-05-01T18:13:03.600Z,15.68
2023-05-01T18:15:30.780Z,14.45
2023-05-01T18:17:57.589Z,14.32
2023-05-01T18:20:24.895Z,18.30
2023-05-01T18:22:54.185Z,17.55
2023-05-01T18:25:21.327Z,18.27
2023-05-01T18:27:49.194Z,17.70
2023-05-01T18:30:16.959Z,14.85
2023-05-01T18:32:47.381Z,14.43
2023-05-01T18:35:17.104Z,17.17
2023-05-01T18:37:44.443Z,19.50
2023-05-01T18:40:12.646Z,16.17
2023-05-01T18:42:42.772Z,16.83
2023-05-01T18:45:10.265Z,17.85
2023-05-01T18:47:37.096Z,15.50
2023-05-01T18:50:05.704Z,16.17
2023-05-01T18:52:32.803Z,15.15
2023-05-01T18:54:59.925Z,15.68
2023-05-01T18:57:28.704Z,14.10
2023-05-01T18:59:55.867Z,15.85
2023-05-01T19:02:22.953Z,16.63
2023-05-01T19:04:57.575Z,16.63
2023-05-01T19:07:26.695Z,18.48
2023-05-01T19:09:53.932Z,13.85
2023-05-01T19:12:20.871Z,15.48
2023-05-01T19:14:48.079Z,15.95
2023-05-01T19:17:14.897Z,14.35
2023-05-01T19:19:42.190Z,14.10
2023-05-01T19:22:09.038Z,16.90
2023-05-01T19:24:36.968Z,13.90
2023-05-01T19:27:03.899Z,17.77
2023-05-01T19:29:31.820Z,16.52
2023-05-01T19:32:00.308Z,14.27
2023-05-01T19:34:28.051Z,17.05
2023-05-01T19:37:00.449Z,14.48
2023-05-01T19:39:29.132Z,13.80
2023-05-01T19:41:55.990Z,15.13
2023-05-01T19:44:23.145Z,14.32
2023-05-01T19:46:49.968Z,13.27
2023-05-01T19:49:18.260Z,15.23
2023-05-01T19:51:46.430Z,14.23
2023-05-01T19:54:15.464Z,14.10
2023-05-01T19:56:42.494Z,19.67
2023-05-01T19:59:10.048Z,14.77
2023-05-01T20:01:38.829Z,14.48
2023-05-01T20:04:06.090Z,14.40
2023-05-01T20:06:34.203Z,18.00
2023-05-01T20:09:01.383Z,16.42
2023-05-01T20:11:28.200Z,18.60
2023-05-01T20:13:55.342Z,17.35
2023-05-01T20:16:22.519Z,15.38
2023-05-01T20:18:49.650Z,18.35
2023-05-01T20:21:16.495Z,17.35
2023-05-01T20:23:45.220Z,16.58
2023-05-01T20:26:12.252Z,16.98
2023-05-01T20:28:39.444Z,17.67
2023-05-01T20:31:06.269Z,16.75
2023-05-01T20:33:33.400Z,18.27
2023-05-01T20:36:01.865Z,16.52
2023-05-01T20:38:29.027Z,16.25
2023-05-01T20:40:55.928Z,19.25
2023-05-01T20:43:23.065Z,17.75
2023-05-01T20:45:49.904Z,20.33
2023-05-01T20:48:16.958Z,18.10
2023-05-01T20:50:45.541Z,17.08
2023-05-01T20:53:12.583Z,18.20
2023-05-01T20:55:39.379Z,19.52
2023-05-01T20:58:07.299Z,16.08
2023-05-01T21:00:34.113Z,17.25
2023-05-01T21:03:01.543Z,17.23
2023-05-01T21:05:28.364Z,15.65
2023-05-01T21:07:56.760Z,18.25
2023-05-01T21:10:23.812Z,17.75
2023-05-01T21:12:51.166Z,18.60
2023-05-01T21:15:18.006Z,18.40
2023-05-01T21:17:45.120Z,20.23
2023-05-01T21:20:19.290Z,19.80
2023-05-01T21:22:48.599Z,20.42
2023-05-01T21:25:19.912Z,15.88
2023-05-01T21:27:46.940Z,17.58
2023-05-01T21:30:15.119Z,17.95
2023-05-01T21:32:42.562Z,20.27
2023-05-01T21:35:11.537Z,17.17
2023-05-01T21:37:40.126Z,17.23
2023-05-01T21:40:07.542Z,16.80
2023-05-01T21:42:35.759Z,19.17
2023-05-01T21:45:06.917Z,17.23
2023-05-01T21:47:38.256Z,16.63
2023-05-01T21:50:06.701Z,17.50
2023-05-01T21:52:34.713Z,16.25
2023-05-01T21:55:03.606Z,17.73
2023-05-01T21:57:31.696Z,17.75
2023-05-01T22:00:01.282Z,16.08
2023-05-01T22:02:31.476Z,18.55
2023-05-01T22:04:58.597Z,18.63
2023-05-01T22:07:25.845Z,18.83
2023-05-01T22:09:52.643Z,18.83
2023-05-01T22:12:20.097Z,22.55
2023-05-01T22:14:47.862Z,18.15
2023-05-01T22:17:15.072Z,16.92
2023-05-01T22:19:42.157Z,18.02
2023-05-01T22:22:09.208Z,16.88
2023-05-01T22:24:36.260Z,18.98
2023-05-01T22:27:03.366Z,18.25
2023-05-01T22:29:30.066Z,18.27
2023-05-01T22:31:57.241Z,17.95
2023-05-01T22:34:24.050Z,19.23
2023-05-01T22:36:51.143Z,19.20
2023-05-01T22:39:17.889Z,19.20
2023-05-01T22:41:45.093Z,17.52
2023-05-01T22:44:11.814Z,18.98
2023-05-01T22:46:38.923Z,19.42
2023-05-01T22:49:05.716Z,21.20
2023-05-01T22:51:32.807Z,17.45
2023-05-01T22:53:59.509Z,18.10
2023-05-01T22:56:26.773Z,18.67
2023-05-01T22:58:55.479Z,21.23
2023-05-01T23:01:27.137Z,22.20
2023-05-01T23:03:54.213Z,20.25
2023-05-01T23:06:21.617Z,24.95
2023-05-01T23:08:52.609Z,21.42
2023-05-01T23:11:21.444Z,21.92
2023-05-01T23:13:49.892Z,24.05
2023-05-01T23:16:17.176Z,25.25
2023-05-01T23:18:44.133Z,23.90
2023-05-01T23:21:12.501Z,20.30
2023-05-01T23:23:43.152Z,21.85
2023-05-01T23:26:26.171Z,20.70
2023-05-01T23:28:53.264Z,23.63
2023-05-01T23:31:27.158Z,22.20
2023-05-01T23:33:54.946Z,25.45
2023-05-01T23:36:22.496Z,22.83
2023-05-01T23:38:49.736Z,22.73
2023-05-01T23:41:16.865Z,23.00
2023-05-01T23:43:46.334Z,21.38
2023-05-01T23:46:13.783Z,19.65
2023-05-01T23:48:40.635Z,22.90
2023-05-01T23:51:07.684Z,21.48
2023-05-01T23:53:34.429Z,23.48
2023-05-01T23:56:01.534Z,24.55
2023-05-01T23:58:28.291Z,23.42
